sensor_id;sensor_type;location;lat;lon;timestamp;P1;durP1;ratioP1;P2;durP2;ratioP2
33254;SDS011;19623;52.482;9.762;2022-11-15T00:01:34;62.03;;;55.60;;
33254;SDS011;19623;52.482;9.762;2022-11-15T00:04:02;82.72;;;73.82;;
33254;SDS011;19623;52.482;9.762;2022-11-15T00:06:29;73.13;;;65.22;;
33254;SDS011;19623;52.482;9.762;2022-11-15T00:08:54;67.13;;;60.22;;
33254;SDS011;19623;52.482;9.762;2022-11-15T00:11:23;56.00;;;50.17;;
33254;SDS011;19623;52.482;9.762;2022-11-15T00:13:48;68.60;;;61.47;;
33254;SDS011;19623;52.482;9.762;2022-11-15T00:16:14;93.63;;;83.68;;
33254;SDS011;19623;52.482;9.762;2022-11-15T00:18:40;59.38;;;53.10;;
33254;SDS011;19623;52.482;9.762;2022-11-15T00:21:06;60.85;;;54.65;;
33254;SDS011;19623;52.482;9.762;2022-11-15T00:23:34;61.10;;;54.85;;
33254;SDS011;19623;52.482;9.762;2022-11-15T00:26:00;58.85;;;53.00;;
33254;SDS011;19623;52.482;9.762;2022-11-15T00:28:26;50.65;;;45.55;;
33254;SDS011;19623;52.482;9.762;2022-11-15T00:30:52;51.95;;;46.67;;
33254;SDS011;19623;52.482;9.762;2022-11-15T00:33:18;47.67;;;42.85;;
33254;SDS011;19623;52.482;9.762;2022-11-15T00:35:44;79.43;;;70.68;;
33254;SDS011;19623;52.482;9.762;2022-11-15T00:38:09;59.72;;;52.03;;
33254;SDS011;19623;52.482;9.762;2022-11-15T00:40:35;27.13;;;18.38;;
33254;SDS011;19623;52.482;9.762;2022-11-15T00:43:01;28.13;;;20.30;;
33254;SDS011;19623;52.482;9.762;2022-11-15T00:45:26;26.95;;;21.90;;
33254;SDS011;19623;52.482;9.762;2022-11-15T00:47:52;32.95;;;29.63;;
33254;SDS011;19623;52.482;9.762;2022-11-15T00:50:18;31.20;;;26.83;;
33254;SDS011;19623;52.482;9.762;2022-11-15T00:52:44;45.15;;;40.45;;
33254;SDS011;19623;52.482;9.762;2022-11-15T00:55:13;36.25;;;30.80;;
33254;SDS011;19623;52.482;9.762;2022-11-15T00:57:40;39.25;;;35.40;;
33254;SDS011;19623;52.482;9.762;2022-11-15T01:00:06;25.65;;;22.23;;
33254;SDS011;19623;52.482;9.762;2022-11-15T01:02:32;29.70;;;25.48;;
33254;SDS011;19623;52.482;9.762;2022-11-15T01:04:59;22.83;;;17.10;;
33254;SDS011;19623;52.482;9.762;2022-11-15T01:07:24;25.17;;;20.00;;
33254;SDS011;19623;52.482;9.762;2022-11-15T01:09:50;24.55;;;18.83;;
33254;SDS011;19623;52.482;9.762;2022-11-15T01:12:15;28.08;;;17.30;;
33254;SDS011;19623;52.482;9.762;2022-11-15T01:14:41;26.58;;;20.02;;
33254;SDS011;19623;52.482;9.762;2022-11-15T01:17:07;28.20;;;24.70;;
33254;SDS011;19623;52.482;9.762;2022-11-15T01:19:32;27.80;;;23.45;;
33254;SDS011;19623;52.482;9.762;2022-11-15T01:21:58;31.35;;;26.23;;
33254;SDS011;19623;52.482;9.762;2022-11-15T01:24:23;28.63;;;24.95;;
33254;SDS011;19623;52.482;9.762;2022-11-15T01:26:49;28.00;;;23.75;;
33254;SDS011;19623;52.482;9.762;2022-11-15T01:29:15;30.10;;;25.35;;
33254;SDS011;19623;52.482;9.762;2022-11-15T01:31:40;28.23;;;22.75;;
33254;SDS011;19623;52.482;9.762;2022-11-15T01:34:06;24.92;;;19.42;;
33254;SDS011;19623;52.482;9.762;2022-11-15T01:36:32;31.13;;;24.45;;
33254;SDS011;19623;52.482;9.762;2022-11-15T01:38:58;37.08;;;32.72;;
33254;SDS011;19623;52.482;9.762;2022-11-15T01:41:24;31.08;;;26.50;;
33254;SDS011;19623;52.482;9.762;2022-11-15T01:43:54;23.30;;;19.20;;
33254;SDS011;19623;52.482;9.762;2022-11-15T01:48:53;25.60;;;19.20;;
33254;SDS011;19623;52.482;9.762;2022-11-15T01:51:22;23.52;;;16.15;;
33254;SDS011;19623;52.482;9.762;2022-11-15T01:53:52;23.27;;;17.45;;
33254;SDS011;19623;52.482;9.762;2022-11-15T01:56:24;19.88;;;14.23;;
33254;SDS011;19623;52.482;9.762;2022-11-15T01:58:53;18.60;;;12.43;;
33254;SDS011;19623;52.482;9.762;2022-11-15T02:01:21;20.13;;;12.57;;
33254;SDS011;19623;52.482;9.762;2022-11-15T02:04:51;19.27;;;13.07;;
33254;SDS011;19623;52.482;9.762;2022-11-15T02:06:57;19.15;;;12.90;;
33254;SDS011;19623;52.482;9.762;2022-11-15T02:09:24;17.17;;;11.95;;
33254;SDS011;19623;52.482;9.762;2022-11-15T02:11:50;17.08;;;10.52;;
33254;SDS011;19623;52.482;9.762;2022-11-15T02:14:18;14.30;;;10.00;;
33254;SDS011;19623;52.482;9.762;2022-11-15T02:22:04;17.35;;;10.63;;
33254;SDS011;19623;52.482;9.762;2022-11-15T02:33:18;20.70;;;12.52;;
33254;SDS011;19623;52.482;9.762;2022-11-15T02:36:00;18.35;;;11.07;;
33254;SDS011;19623;52.482;9.762;2022-11-15T02:41:47;18.75;;;10.93;;
33254;SDS011;19623;52.482;9.762;2022-11-15T02:44:21;16.98;;;12.38;;
33254;SDS011;19623;52.482;9.762;2022-11-15T02:46:52;16.58;;;12.80;;
33254;SDS011;19623;52.482;9.762;2022-11-15T02:49:47;16.58;;;10.63;;
33254;SDS011;19623;52.482;9.762;2022-11-15T02:52:19;16.08;;;10.80;;
33254;SDS011;19623;52.482;9.762;2022-11-15T02:54:56;18.05;;;11.48;;
33254;SDS011;19623;52.482;9.762;2022-11-15T02:57:38;18.55;;;11.50;;
33254;SDS011;19623;52.482;9.762;2022-11-15T03:00:27;19.88;;;11.38;;
33254;SDS011;19623;52.482;9.762;2022-11-15T03:05:57;18.23;;;11.95;;
33254;SDS011;19623;52.482;9.762;2022-11-15T03:11:07;16.33;;;11.77;;
33254;SDS011;19623;52.482;9.762;2022-11-15T03:13:47;16.45;;;12.40;;
33254;SDS011;19623;52.482;9.762;2022-11-15T03:16:35;17.00;;;11.63;;
33254;SDS011;19623;52.482;9.762;2022-11-15T03:21:44;19.67;;;13.38;;
33254;SDS011;19623;52.482;9.762;2022-11-15T03:24:12;16.15;;;13.45;;
33254;SDS011;19623;52.482;9.762;2022-11-15T03:26:42;19.20;;;13.57;;
33254;SDS011;19623;52.482;9.762;2022-11-15T03:29:14;19.13;;;15.63;;
33254;SDS011;19623;52.482;9.762;2022-11-15T03:31:51;20.20;;;16.15;;
33254;SDS011;19623;52.482;9.762;2022-11-15T03:34:35;19.88;;;16.92;;
33254;SDS011;19623;52.482;9.762;2022-11-15T03:37:02;19.35;;;17.33;;
33254;SDS011;19623;52.482;9.762;2022-11-15T03:39:29;20.60;;;18.35;;
33254;SDS011;19623;52.482;9.762;2022-11-15T03:42:08;23.38;;;20.83;;
33254;SDS011;19623;52.482;9.762;2022-11-15T03:44:51;23.23;;;20.57;;
33254;SDS011;19623;52.482;9.762;2022-11-15T03:50:01;35.63;;;32.13;;
33254;SDS011;19623;52.482;9.762;2022-11-15T03:52:32;30.27;;;27.40;;
33254;SDS011;19623;52.482;9.762;2022-11-15T03:54:59;31.30;;;27.08;;
33254;SDS011;19623;52.482;9.762;2022-11-15T03:57:27;33.00;;;29.67;;
33254;SDS011;19623;52.482;9.762;2022-11-15T03:59:53;33.75;;;30.45;;
33254;SDS011;19623;52.482;9.762;2022-11-15T04:02:19;29.75;;;26.67;;
33254;SDS011;19623;52.482;9.762;2022-11-15T04:04:44;26.45;;;23.70;;
33254;SDS011;19623;52.482;9.762;2022-11-15T04:07:10;30.85;;;28.08;;
33254;SDS011;19623;52.482;9.762;2022-11-15T04:09:36;36.67;;;33.17;;
33254;SDS011;19623;52.482;9.762;2022-11-15T04:12:22;31.13;;;28.17;;
33254;SDS011;19623;52.482;9.762;2022-11-15T04:15:01;31.65;;;28.40;;
33254;SDS011;19623;52.482;9.762;2022-11-15T04:17:32;32.95;;;29.83;;
33254;SDS011;19623;52.482;9.762;2022-11-15T04:20:06;44.10;;;40.00;;
33254;SDS011;19623;52.482;9.762;2022-11-15T04:22:56;35.75;;;32.70;;
33254;SDS011;19623;52.482;9.762;2022-11-15T04:25:42;47.20;;;43.00;;
33254;SDS011;19623;52.482;9.762;2022-11-15T04:28:09;44.80;;;40.80;;
33254;SDS011;19623;52.482;9.762;2022-11-15T04:30:36;31.17;;;28.13;;
33254;SDS011;19623;52.482;9.762;2022-11-15T04:33:03;53.95;;;49.30;;
33254;SDS011;19623;52.482;9.762;2022-11-15T04:35:28;47.05;;;42.80;;
33254;SDS011;19623;52.482;9.762;2022-11-15T04:37:55;39.60;;;36.35;;
33254;SDS011;19623;52.482;9.762;2022-11-15T04:40:21;43.63;;;39.88;;
33254;SDS011;19623;52.482;9.762;2022-11-15T04:42:46;37.40;;;34.10;;
33254;SDS011;19623;52.482;9.762;2022-11-15T04:45:12;33.92;;;31.08;;
33254;SDS011;19623;52.482;9.762;2022-11-15T04:47:38;34.60;;;31.30;;
33254;SDS011;19623;52.482;9.762;2022-11-15T04:50:04;40.05;;;36.33;;
33254;SDS011;19623;52.482;9.762;2022-11-15T04:52:30;36.33;;;32.58;;
33254;SDS011;19623;52.482;9.762;2022-11-15T04:54:55;36.60;;;33.22;;
33254;SDS011;19623;52.482;9.762;2022-11-15T04:57:21;40.42;;;36.67;;
33254;SDS011;19623;52.482;9.762;2022-11-15T04:59:47;37.10;;;33.53;;
33254;SDS011;19623;52.482;9.762;2022-11-15T05:02:12;43.80;;;39.83;;
33254;SDS011;19623;52.482;9.762;2022-11-15T05:04:38;35.65;;;32.42;;
33254;SDS011;19623;52.482;9.762;2022-11-15T05:07:04;34.80;;;31.63;;
33254;SDS011;19623;52.482;9.762;2022-11-15T05:09:30;42.22;;;38.22;;
33254;SDS011;19623;52.482;9.762;2022-11-15T05:11:56;33.58;;;30.52;;
33254;SDS011;19623;52.482;9.762;2022-11-15T05:14:21;37.45;;;33.88;;
33254;SDS011;19623;52.482;9.762;2022-11-15T05:16:47;37.30;;;33.60;;
33254;SDS011;19623;52.482;9.762;2022-11-15T05:19:13;55.75;;;50.40;;
33254;SDS011;19623;52.482;9.762;2022-11-15T05:21:39;51.53;;;47.13;;
33254;SDS011;19623;52.482;9.762;2022-11-15T05:24:04;49.10;;;44.92;;
33254;SDS011;19623;52.482;9.762;2022-11-15T05:26:31;38.33;;;34.53;;
33254;SDS011;19623;52.482;9.762;2022-11-15T05:28:57;40.20;;;36.30;;
33254;SDS011;19623;52.482;9.762;2022-11-15T05:31:24;51.00;;;46.40;;
33254;SDS011;19623;52.482;9.762;2022-11-15T05:33:51;39.17;;;35.45;;
33254;SDS011;19623;52.482;9.762;2022-11-15T05:36:36;34.28;;;30.83;;
33254;SDS011;19623;52.482;9.762;2022-11-15T05:39:05;32.55;;;29.20;;
33254;SDS011;19623;52.482;9.762;2022-11-15T05:41:43;29.02;;;26.30;;
33254;SDS011;19623;52.482;9.762;2022-11-15T05:46:40;41.00;;;37.42;;
33254;SDS011;19623;52.482;9.762;2022-11-15T05:49:09;30.50;;;27.55;;
33254;SDS011;19623;52.482;9.762;2022-11-15T05:51:38;23.85;;;21.52;;
33254;SDS011;19623;52.482;9.762;2022-11-15T05:54:05;26.08;;;23.40;;
33254;SDS011;19623;52.482;9.762;2022-11-15T05:56:31;22.52;;;20.33;;
33254;SDS011;19623;52.482;9.762;2022-11-15T05:58:57;21.80;;;19.50;;
33254;SDS011;19623;52.482;9.762;2022-11-15T06:01:24;25.35;;;22.80;;
33254;SDS011;19623;52.482;9.762;2022-11-15T06:03:51;20.42;;;17.80;;
33254;SDS011;19623;52.482;9.762;2022-11-15T06:06:17;23.55;;;17.35;;
33254;SDS011;19623;52.482;9.762;2022-11-15T06:08:42;18.85;;;16.90;;
33254;SDS011;19623;52.482;9.762;2022-11-15T06:11:08;20.30;;;18.45;;
33254;SDS011;19623;52.482;9.762;2022-11-15T06:13:34;20.85;;;18.52;;
33254;SDS011;19623;52.482;9.762;2022-11-15T06:16:00;22.92;;;17.80;;
33254;SDS011;19623;52.482;9.762;2022-11-15T06:18:25;20.70;;;18.85;;
33254;SDS011;19623;52.482;9.762;2022-11-15T06:20:51;21.23;;;19.15;;
33254;SDS011;19623;52.482;9.762;2022-11-15T06:23:17;23.77;;;21.42;;
33254;SDS011;19623;52.482;9.762;2022-11-15T06:25:43;18.10;;;16.05;;
33254;SDS011;19623;52.482;9.762;2022-11-15T06:28:08;19.90;;;17.63;;
33254;SDS011;19623;52.482;9.762;2022-11-15T06:30:34;23.67;;;20.60;;
33254;SDS011;19623;52.482;9.762;2022-11-15T06:33:03;31.40;;;28.75;;
33254;SDS011;19623;52.482;9.762;2022-11-15T06:35:30;27.15;;;24.95;;
33254;SDS011;19623;52.482;9.762;2022-11-15T06:38:08;31.00;;;28.45;;
33254;SDS011;19623;52.482;9.762;2022-11-15T06:40:35;32.88;;;30.25;;
33254;SDS011;19623;52.482;9.762;2022-11-15T06:43:02;34.50;;;31.65;;
33254;SDS011;19623;52.482;9.762;2022-11-15T06:45:28;38.90;;;35.60;;
33254;SDS011;19623;52.482;9.762;2022-11-15T06:47:54;29.42;;;26.98;;
33254;SDS011;19623;52.482;9.762;2022-11-15T06:50:20;43.10;;;39.65;;
33254;SDS011;19623;52.482;9.762;2022-11-15T06:52:45;29.30;;;26.08;;
33254;SDS011;19623;52.482;9.762;2022-11-15T06:55:11;30.98;;;28.23;;
33254;SDS011;19623;52.482;9.762;2022-11-15T06:57:37;29.35;;;26.98;;
33254;SDS011;19623;52.482;9.762;2022-11-15T07:00:12;45.75;;;42.08;;
33254;SDS011;19623;52.482;9.762;2022-11-15T07:02:38;26.67;;;24.17;;
33254;SDS011;19623;52.482;9.762;2022-11-15T07:05:04;29.10;;;26.50;;
33254;SDS011;19623;52.482;9.762;2022-11-15T07:07:30;17.67;;;16.05;;
33254;SDS011;19623;52.482;9.762;2022-11-15T07:09:55;18.35;;;16.52;;
33254;SDS011;19623;52.482;9.762;2022-11-15T07:12:21;15.07;;;13.68;;
33254;SDS011;19623;52.482;9.762;2022-11-15T07:14:47;20.98;;;19.00;;
33254;SDS011;19623;52.482;9.762;2022-11-15T07:17:12;23.77;;;21.83;;
33254;SDS011;19623;52.482;9.762;2022-11-15T07:19:38;18.15;;;16.10;;
33254;SDS011;19623;52.482;9.762;2022-11-15T07:22:03;16.92;;;15.43;;
33254;SDS011;19623;52.482;9.762;2022-11-15T07:24:29;16.40;;;14.80;;
33254;SDS011;19623;52.482;9.762;2022-11-15T07:26:55;16.35;;;14.75;;
33254;SDS011;19623;52.482;9.762;2022-11-15T07:29:20;19.60;;;17.90;;
33254;SDS011;19623;52.482;9.762;2022-11-15T07:31:46;14.98;;;13.40;;
33254;SDS011;19623;52.482;9.762;2022-11-15T07:34:12;16.13;;;14.50;;
33254;SDS011;19623;52.482;9.762;2022-11-15T07:36:37;16.95;;;13.57;;
33254;SDS011;19623;52.482;9.762;2022-11-15T07:39:03;19.58;;;16.13;;
33254;SDS011;19623;52.482;9.762;2022-11-15T07:41:29;13.23;;;11.88;;
33254;SDS011;19623;52.482;9.762;2022-11-15T07:43:55;24.63;;;21.75;;
33254;SDS011;19623;52.482;9.762;2022-11-15T07:46:22;25.95;;;22.73;;
33254;SDS011;19623;52.482;9.762;2022-11-15T07:48:54;25.88;;;23.75;;
33254;SDS011;19623;52.482;9.762;2022-11-15T07:51:23;16.75;;;13.05;;
33254;SDS011;19623;52.482;9.762;2022-11-15T07:53:49;19.92;;;18.02;;
33254;SDS011;19623;52.482;9.762;2022-11-15T07:56:27;19.05;;;13.15;;
33254;SDS011;19623;52.482;9.762;2022-11-15T07:58:52;15.15;;;13.60;;
33254;SDS011;19623;52.482;9.762;2022-11-15T08:01:18;19.08;;;17.10;;
33254;SDS011;19623;52.482;9.762;2022-11-15T08:03:44;15.45;;;14.05;;
33254;SDS011;19623;52.482;9.762;2022-11-15T08:06:13;13.80;;;10.55;;
33254;SDS011;19623;52.482;9.762;2022-11-15T08:08:39;13.88;;;12.57;;
33254;SDS011;19623;52.482;9.762;2022-11-15T08:11:05;14.02;;;12.65;;
33254;SDS011;19623;52.482;9.762;2022-11-15T08:13:31;11.32;;;9.20;;
33254;SDS011;19623;52.482;9.762;2022-11-15T08:15:57;10.88;;;9.45;;
33254;SDS011;19623;52.482;9.762;2022-11-15T08:18:24;14.27;;;9.85;;
33254;SDS011;19623;52.482;9.762;2022-11-15T08:20:50;15.55;;;11.73;;
33254;SDS011;19623;52.482;9.762;2022-11-15T08:23:15;15.43;;;14.15;;
33254;SDS011;19623;52.482;9.762;2022-11-15T08:25:41;10.23;;;8.93;;
33254;SDS011;19623;52.482;9.762;2022-11-15T08:28:08;11.90;;;9.13;;
33254;SDS011;19623;52.482;9.762;2022-11-15T08:30:36;11.68;;;8.68;;
33254;SDS011;19623;52.482;9.762;2022-11-15T08:33:09;11.57;;;9.98;;
33254;SDS011;19623;52.482;9.762;2022-11-15T08:35:36;16.38;;;14.95;;
33254;SDS011;19623;52.482;9.762;2022-11-15T08:38:02;14.85;;;12.68;;
33254;SDS011;19623;52.482;9.762;2022-11-15T08:40:28;12.07;;;11.02;;
33254;SDS011;19623;52.482;9.762;2022-11-15T08:42:55;12.63;;;11.45;;
33254;SDS011;19623;52.482;9.762;2022-11-15T08:45:20;12.32;;;9.52;;
33254;SDS011;19623;52.482;9.762;2022-11-15T08:47:46;12.10;;;9.85;;
33254;SDS011;19623;52.482;9.762;2022-11-15T08:50:13;13.90;;;12.02;;
33254;SDS011;19623;52.482;9.762;2022-11-15T08:52:41;12.23;;;10.38;;
33254;SDS011;19623;52.482;9.762;2022-11-15T08:55:07;13.50;;;11.30;;
33254;SDS011;19623;52.482;9.762;2022-11-15T08:57:33;11.95;;;10.80;;
33254;SDS011;19623;52.482;9.762;2022-11-15T08:59:59;12.32;;;9.80;;
33254;SDS011;19623;52.482;9.762;2022-11-15T09:02:24;19.10;;;17.33;;
33254;SDS011;19623;52.482;9.762;2022-11-15T09:04:50;15.30;;;13.88;;
33254;SDS011;19623;52.482;9.762;2022-11-15T09:07:16;15.48;;;13.98;;
33254;SDS011;19623;52.482;9.762;2022-11-15T09:09:42;14.82;;;13.40;;
33254;SDS011;19623;52.482;9.762;2022-11-15T09:12:08;13.15;;;12.00;;
33254;SDS011;19623;52.482;9.762;2022-11-15T09:14:34;11.68;;;10.68;;
33254;SDS011;19623;52.482;9.762;2022-11-15T09:17:00;13.52;;;12.02;;
33254;SDS011;19623;52.482;9.762;2022-11-15T09:19:28;21.58;;;14.98;;
33254;SDS011;19623;52.482;9.762;2022-11-15T09:21:54;12.55;;;11.45;;
33254;SDS011;19623;52.482;9.762;2022-11-15T09:24:20;12.95;;;11.70;;
33254;SDS011;19623;52.482;9.762;2022-11-15T09:26:46;9.93;;;9.00;;
33254;SDS011;19623;52.482;9.762;2022-11-15T09:29:14;11.02;;;9.65;;
33254;SDS011;19623;52.482;9.762;2022-11-15T09:31:40;10.90;;;10.00;;
33254;SDS011;19623;52.482;9.762;2022-11-15T09:34:06;9.48;;;8.13;;
33254;SDS011;19623;52.482;9.762;2022-11-15T09:36:31;10.32;;;7.88;;
33254;SDS011;19623;52.482;9.762;2022-11-15T09:38:57;9.10;;;7.75;;
33254;SDS011;19623;52.482;9.762;2022-11-15T09:44:34;11.05;;;5.78;;
33254;SDS011;19623;52.482;9.762;2022-11-15T09:50:08;7.45;;;6.72;;
33254;SDS011;19623;52.482;9.762;2022-11-15T09:52:36;7.45;;;6.22;;
33254;SDS011;19623;52.482;9.762;2022-11-15T09:55:07;10.15;;;5.88;;
33254;SDS011;19623;52.482;9.762;2022-11-15T10:00:30;8.00;;;5.97;;
33254;SDS011;19623;52.482;9.762;2022-11-15T10:03:19;10.23;;;6.28;;
33254;SDS011;19623;52.482;9.762;2022-11-15T10:05:55;12.32;;;6.55;;
33254;SDS011;19623;52.482;9.762;2022-11-15T10:08:28;8.43;;;6.68;;
33254;SDS011;19623;52.482;9.762;2022-11-15T10:11:02;9.45;;;5.30;;
33254;SDS011;19623;52.482;9.762;2022-11-15T10:13:31;6.95;;;5.20;;
33254;SDS011;19623;52.482;9.762;2022-11-15T10:16:13;6.30;;;3.85;;
33254;SDS011;19623;52.482;9.762;2022-11-15T10:25:10;10.95;;;9.82;;
33254;SDS011;19623;52.482;9.762;2022-11-15T10:27:39;8.23;;;7.43;;
33254;SDS011;19623;52.482;9.762;2022-11-15T10:30:16;8.25;;;7.53;;
33254;SDS011;19623;52.482;9.762;2022-11-15T10:32:44;7.85;;;7.13;;
33254;SDS011;19623;52.482;9.762;2022-11-15T10:35:22;11.85;;;8.75;;
33254;SDS011;19623;52.482;9.762;2022-11-15T10:38:06;12.52;;;11.38;;
33254;SDS011;19623;52.482;9.762;2022-11-15T10:40:37;8.73;;;7.47;;
33254;SDS011;19623;52.482;9.762;2022-11-15T10:43:12;10.10;;;5.50;;
33254;SDS011;19623;52.482;9.762;2022-11-15T10:45:40;8.68;;;6.65;;
33254;SDS011;19623;52.482;9.762;2022-11-15T10:50:43;6.90;;;6.00;;
33254;SDS011;19623;52.482;9.762;2022-11-15T10:53:20;7.00;;;5.47;;
33254;SDS011;19623;52.482;9.762;2022-11-15T10:55:50;6.75;;;6.07;;
33254;SDS011;19623;52.482;9.762;2022-11-15T10:58:41;8.43;;;5.50;;
33254;SDS011;19623;52.482;9.762;2022-11-15T11:01:11;10.20;;;7.53;;
33254;SDS011;19623;52.482;9.762;2022-11-15T11:03:38;12.98;;;5.60;;
33254;SDS011;19623;52.482;9.762;2022-11-15T11:06:13;6.55;;;5.20;;
33254;SDS011;19623;52.482;9.762;2022-11-15T11:08:52;7.13;;;3.63;;
33254;SDS011;19623;52.482;9.762;2022-11-15T11:11:21;5.30;;;3.97;;
33254;SDS011;19623;52.482;9.762;2022-11-15T11:13:48;5.97;;;5.45;;
33254;SDS011;19623;52.482;9.762;2022-11-15T11:27:17;7.97;;;7.25;;
33254;SDS011;19623;52.482;9.762;2022-11-15T11:38:50;7.72;;;6.95;;
33254;SDS011;19623;52.482;9.762;2022-11-15T11:41:42;6.35;;;5.78;;
33254;SDS011;19623;52.482;9.762;2022-11-15T11:47:10;10.93;;;8.40;;
33254;SDS011;19623;52.482;9.762;2022-11-15T11:57:46;9.60;;;8.75;;
33254;SDS011;19623;52.482;9.762;2022-11-15T12:00:33;7.00;;;4.57;;
33254;SDS011;19623;52.482;9.762;2022-11-15T12:03:09;6.85;;;6.20;;
33254;SDS011;19623;52.482;9.762;2022-11-15T12:05:43;10.57;;;5.85;;
33254;SDS011;19623;52.482;9.762;2022-11-15T12:14:29;7.10;;;6.30;;
33254;SDS011;19623;52.482;9.762;2022-11-15T12:17:25;7.20;;;5.17;;
33254;SDS011;19623;52.482;9.762;2022-11-15T12:19:57;6.90;;;6.30;;
33254;SDS011;19623;52.482;9.762;2022-11-15T12:22:43;5.85;;;5.00;;
33254;SDS011;19623;52.482;9.762;2022-11-15T12:25:52;9.82;;;4.25;;
33254;SDS011;19623;52.482;9.762;2022-11-15T12:34:48;6.70;;;5.90;;
33254;SDS011;19623;52.482;9.762;2022-11-15T12:37:00;9.25;;;7.95;;
33254;SDS011;19623;52.482;9.762;2022-11-15T12:42:40;6.28;;;5.78;;
33254;SDS011;19623;52.482;9.762;2022-11-15T12:45:45;6.03;;;5.47;;
33254;SDS011;19623;52.482;9.762;2022-11-15T13:12:48;7.18;;;6.55;;
33254;SDS011;19623;52.482;9.762;2022-11-15T13:17:50;6.93;;;5.97;;
33254;SDS011;19623;52.482;9.762;2022-11-15T13:20:21;8.18;;;5.47;;
33254;SDS011;19623;52.482;9.762;2022-11-15T13:23:00;8.13;;;4.72;;
33254;SDS011;19623;52.482;9.762;2022-11-15T13:28:17;5.72;;;5.10;;
33254;SDS011;19623;52.482;9.762;2022-11-15T13:30:54;7.00;;;5.85;;
33254;SDS011;19623;52.482;9.762;2022-11-15T13:33:23;5.25;;;4.13;;
33254;SDS011;19623;52.482;9.762;2022-11-15T13:35:51;4.55;;;4.15;;
33254;SDS011;19623;52.482;9.762;2022-11-15T13:38:26;6.20;;;5.28;;
33254;SDS011;19623;52.482;9.762;2022-11-15T13:40:53;7.88;;;4.28;;
33254;SDS011;19623;52.482;9.762;2022-11-15T13:46:22;10.63;;;5.03;;
33254;SDS011;19623;52.482;9.762;2022-11-15T13:48:58;8.63;;;6.10;;
33254;SDS011;19623;52.482;9.762;2022-11-15T13:51:26;7.50;;;4.18;;
33254;SDS011;19623;52.482;9.762;2022-11-15T13:54:24;11.40;;;6.22;;
33254;SDS011;19623;52.482;9.762;2022-11-15T13:59:34;6.78;;;4.50;;
33254;SDS011;19623;52.482;9.762;2022-11-15T14:02:25;8.98;;;5.20;;
33254;SDS011;19623;52.482;9.762;2022-11-15T14:07:38;6.32;;;5.65;;
33254;SDS011;19623;52.482;9.762;2022-11-15T14:12:58;5.00;;;3.70;;
33254;SDS011;19623;52.482;9.762;2022-11-15T14:15:25;5.95;;;4.55;;
33254;SDS011;19623;52.482;9.762;2022-11-15T14:17:57;4.85;;;4.32;;
33254;SDS011;19623;52.482;9.762;2022-11-15T14:23:00;6.53;;;5.80;;
33254;SDS011;19623;52.482;9.762;2022-11-15T14:25:28;6.82;;;5.55;;
33254;SDS011;19623;52.482;9.762;2022-11-15T14:30:37;9.00;;;5.03;;
33254;SDS011;19623;52.482;9.762;2022-11-15T14:33:17;6.60;;;6.00;;
33254;SDS011;19623;52.482;9.762;2022-11-15T14:35:49;6.50;;;5.88;;
33254;SDS011;19623;52.482;9.762;2022-11-15T14:38:18;8.77;;;8.13;;
33254;SDS011;19623;52.482;9.762;2022-11-15T14:40:44;6.75;;;6.15;;
33254;SDS011;19623;52.482;9.762;2022-11-15T14:43:10;7.47;;;6.88;;
33254;SDS011;19623;52.482;9.762;2022-11-15T14:45:37;7.90;;;7.18;;
33254;SDS011;19623;52.482;9.762;2022-11-15T14:48:04;6.85;;;6.07;;
33254;SDS011;19623;52.482;9.762;2022-11-15T14:50:30;8.95;;;6.82;;
33254;SDS011;19623;52.482;9.762;2022-11-15T14:52:57;8.18;;;5.43;;
33254;SDS011;19623;52.482;9.762;2022-11-15T14:55:27;7.40;;;6.65;;
33254;SDS011;19623;52.482;9.762;2022-11-15T14:58:00;7.68;;;5.45;;
33254;SDS011;19623;52.482;9.762;2022-11-15T15:00:28;9.80;;;8.02;;
33254;SDS011;19623;52.482;9.762;2022-11-15T15:02:55;5.70;;;5.20;;
33254;SDS011;19623;52.482;9.762;2022-11-15T15:05:32;7.93;;;6.47;;
33254;SDS011;19623;52.482;9.762;2022-11-15T15:07:58;5.55;;;4.97;;
33254;SDS011;19623;52.482;9.762;2022-11-15T15:10:24;10.60;;;7.85;;
33254;SDS011;19623;52.482;9.762;2022-11-15T15:12:55;10.48;;;9.43;;
33254;SDS011;19623;52.482;9.762;2022-11-15T15:15:23;9.60;;;8.68;;
33254;SDS011;19623;52.482;9.762;2022-11-15T15:17:50;8.30;;;6.22;;
33254;SDS011;19623;52.482;9.762;2022-11-15T15:20:17;8.75;;;7.95;;
33254;SDS011;19623;52.482;9.762;2022-11-15T15:22:43;8.13;;;5.03;;
33254;SDS011;19623;52.482;9.762;2022-11-15T15:28:00;7.57;;;6.85;;
33254;SDS011;19623;52.482;9.762;2022-11-15T15:30:29;7.90;;;4.88;;
33254;SDS011;19623;52.482;9.762;2022-11-15T15:32:55;6.70;;;4.72;;
33254;SDS011;19623;52.482;9.762;2022-11-15T15:35:23;9.73;;;6.32;;
33254;SDS011;19623;52.482;9.762;2022-11-15T15:37:52;8.50;;;7.78;;
33254;SDS011;19623;52.482;9.762;2022-11-15T15:40:20;7.97;;;7.22;;
33254;SDS011;19623;52.482;9.762;2022-11-15T15:42:49;9.75;;;8.15;;
33254;SDS011;19623;52.482;9.762;2022-11-15T15:45:16;9.20;;;8.52;;
33254;SDS011;19623;52.482;9.762;2022-11-15T15:47:43;8.75;;;6.30;;
33254;SDS011;19623;52.482;9.762;2022-11-15T15:52:51;8.10;;;7.50;;
33254;SDS011;19623;52.482;9.762;2022-11-15T15:55:18;4.82;;;4.35;;
33254;SDS011;19623;52.482;9.762;2022-11-15T15:57:45;6.63;;;4.15;;
33254;SDS011;19623;52.482;9.762;2022-11-15T16:00:11;9.43;;;5.20;;
33254;SDS011;19623;52.482;9.762;2022-11-15T16:02:38;9.88;;;7.38;;
33254;SDS011;19623;52.482;9.762;2022-11-15T16:05:04;5.35;;;4.47;;
33254;SDS011;19623;52.482;9.762;2022-11-15T16:07:30;8.77;;;7.97;;
33254;SDS011;19623;52.482;9.762;2022-11-15T16:09:57;8.10;;;7.35;;
33254;SDS011;19623;52.482;9.762;2022-11-15T16:12:26;8.27;;;5.18;;
33254;SDS011;19623;52.482;9.762;2022-11-15T16:14:56;7.67;;;5.07;;
33254;SDS011;19623;52.482;9.762;2022-11-15T16:17:22;5.13;;;4.65;;
33254;SDS011;19623;52.482;9.762;2022-11-15T16:19:53;5.57;;;4.30;;
33254;SDS011;19623;52.482;9.762;2022-11-15T16:22:19;3.90;;;3.53;;
33254;SDS011;19623;52.482;9.762;2022-11-15T16:24:48;6.20;;;4.47;;
33254;SDS011;19623;52.482;9.762;2022-11-15T16:27:14;8.45;;;6.35;;
33254;SDS011;19623;52.482;9.762;2022-11-15T16:29:42;5.47;;;3.72;;
33254;SDS011;19623;52.482;9.762;2022-11-15T16:32:09;8.80;;;3.22;;
33254;SDS011;19623;52.482;9.762;2022-11-15T16:34:35;5.40;;;3.50;;
33254;SDS011;19623;52.482;9.762;2022-11-15T16:37:00;6.38;;;3.33;;
33254;SDS011;19623;52.482;9.762;2022-11-15T16:39:26;6.80;;;3.65;;
33254;SDS011;19623;52.482;9.762;2022-11-15T16:41:55;5.97;;;4.47;;
33254;SDS011;19623;52.482;9.762;2022-11-15T16:44:22;8.05;;;5.22;;
33254;SDS011;19623;52.482;9.762;2022-11-15T16:46:48;8.50;;;4.97;;
33254;SDS011;19623;52.482;9.762;2022-11-15T16:49:16;7.35;;;5.00;;
33254;SDS011;19623;52.482;9.762;2022-11-15T16:51:47;9.80;;;8.68;;
33254;SDS011;19623;52.482;9.762;2022-11-15T16:54:13;11.90;;;7.20;;
33254;SDS011;19623;52.482;9.762;2022-11-15T16:56:40;8.55;;;7.07;;
33254;SDS011;19623;52.482;9.762;2022-11-15T16:59:10;10.35;;;7.57;;
33254;SDS011;19623;52.482;9.762;2022-11-15T17:01:39;12.50;;;7.30;;
33254;SDS011;19623;52.482;9.762;2022-11-15T17:04:15;10.27;;;7.45;;
33254;SDS011;19623;52.482;9.762;2022-11-15T17:06:46;12.05;;;8.45;;
33254;SDS011;19623;52.482;9.762;2022-11-15T17:09:16;10.68;;;8.02;;
33254;SDS011;19623;52.482;9.762;2022-11-15T17:11:49;9.52;;;8.32;;
33254;SDS011;19623;52.482;9.762;2022-11-15T17:14:16;11.15;;;8.43;;